Nuertingen Klinik

DE-0872 · Baden-Württemberg, Alemanha

História da METAR DE-0872 · Nuertingen Klinik

Abaixo você vê METARs dos últimos dias. Selecione um ano para navegar pelos METARs mais antigos, a partir do ano 2007.

15 de julho de 2024

Hora Código Clima Temp. Visibilidade Tecto Vento METAR/SPECI
01:50
V
16 °C 10 km+ - 360° 360° 0 kt METAR EDDS 142350Z AUTO 00000KT CAVOK 16/12 Q1015
01:20
V
16 °C 10 km+ - Var Var 1 kt METAR EDDS 142320Z AUTO VRB01KT CAVOK 16/13 Q1015
00:50
V
17 °C 10 km+ - 260° 260° 3 kt METAR EDDS 142250Z AUTO 26003KT CAVOK 17/12 Q1015
00:20
V
18 °C 10 km+ - 360° 360° 0 kt METAR EDDS 142220Z AUTO 00000KT CAVOK 18/11 Q1015

14 de julho de 2024

Hora Código Clima Temp. Visibilidade Tecto Vento METAR/SPECI
23:50
V
18 °C 10 km+ - 240° 240° 1 kt METAR EDDS 142150Z AUTO 24001KT CAVOK 18/13 Q1015
23:20
V
19 °C 10 km+ - 300° 300° 4 kt METAR EDDS 142120Z AUTO 30004KT CAVOK 19/13 Q1015
22:50
V
20 °C 10 km+ - Var Var 2 kt METAR EDDS 142050Z AUTO VRB02KT CAVOK 20/12 Q1015
22:20
V
20 °C 10 km+ - 310° 310° 3 kt METAR EDDS 142020Z AUTO 31003KT 270V350 CAVOK 20/12 Q1015 NOSIG
21:50
V
21 °C 10 km+ - 320° 320° 4 kt METAR EDDS 141950Z AUTO 32004KT CAVOK 21/13 Q1015 NOSIG
21:20
V
21 °C 10 km+ - 330° 330° 3 kt METAR EDDS 141920Z AUTO 33003KT CAVOK 21/13 Q1014 NOSIG
20:50
V
22 °C 10 km+ - Var Var 1 kt METAR EDDS 141850Z AUTO VRB01KT CAVOK 22/12 Q1014 NOSIG
20:20
V
23 °C 10 km+ - 010° 010° 3 kt METAR EDDS 141820Z AUTO 01003KT 330V060 CAVOK 23/13 Q1014 NOSIG
19:50
V
23 °C 10 km+ - 340° 340° 3 kt METAR EDDS 141750Z AUTO 34003KT 310V020 CAVOK 23/13 Q1014 NOSIG
19:20
V
23 °C 10 km+ - 030° 030° 4 kt METAR EDDS 141720Z AUTO 03004KT CAVOK 23/13 Q1014 NOSIG
18:50
V
24 °C 10 km+ - 010° 010° 3 kt METAR EDDS 141650Z AUTO 01003KT 320V050 CAVOK 24/13 Q1014 NOSIG
18:20
V
24 °C 10 km+ - 010° 010° 5 kt METAR EDDS 141620Z AUTO 01005KT 330V050 CAVOK 24/13 Q1014 NOSIG
17:50
V
25 °C 10 km+ - 310° 310° 4 kt METAR EDDS 141550Z AUTO 31004KT 250V010 CAVOK 25/12 Q1014 NOSIG
17:20
V
25 °C 10 km+ - 210° 210° 4 kt METAR EDDS 141520Z AUTO 21004KT 160V300 CAVOK 25/11 Q1014 NOSIG
16:50
V
25 °C 10 km+ - 190° 190° 4 kt METAR EDDS 141450Z AUTO 19004KT 100V240 CAVOK 25/11 Q1014 NOSIG
16:20
V
25 °C 10 km+ - Var Var 2 kt METAR EDDS 141420Z AUTO VRB02KT CAVOK 25/11 Q1014 NOSIG
15:50
V
25 °C 10 km+ - Var Var 5 kt METAR EDDS 141350Z AUTO VRB05KT CAVOK 25/11 Q1014 NOSIG
15:20
V
24 °C 10 km+ - 210° 210° 7 kt METAR EDDS 141320Z AUTO 21007KT 140V270 CAVOK 24/10 Q1014 NOSIG
14:50
V
25 °C 10 km+ - Var Var 7 kt METAR EDDS 141250Z AUTO VRB07KT CAVOK 25/10 Q1014 NOSIG
14:20
V
25 °C 10 km+ - Var Var 6 kt METAR EDDS 141220Z AUTO VRB06KT CAVOK 25/11 Q1014 NOSIG
13:50
V
25 °C 10 km+ - Var Var 5 kt METAR EDDS 141150Z AUTO VRB05KT CAVOK 25/11 Q1015 NOSIG
13:20
V
24 °C 10 km+ - 230° 230° 6 kt METAR EDDS 141120Z AUTO 23006KT 150V300 CAVOK 24/10 Q1015 NOSIG
12:50
V
23 °C 10 km+ - Var Var 5 kt METAR EDDS 141050Z AUTO VRB05KT CAVOK 23/09 Q1015 NOSIG
12:20
V
23 °C 10 km+ - Var Var 2 kt METAR EDDS 141020Z AUTO VRB02KT 9999 FEW046 23/11 Q1015 NOSIG
11:50
V
22 °C 10 km+ - 050° 050° 3 kt METAR EDDS 140950Z AUTO 05003KT 330V110 CAVOK 22/13 Q1015 NOSIG
11:20
V
21 °C 10 km+ - Var Var 2 kt METAR EDDS 140920Z AUTO VRB02KT CAVOK 21/13 Q1015 NOSIG
10:50
V
21 °C 10 km+ - Var Var 3 kt METAR EDDS 140850Z AUTO VRB03KT CAVOK 21/13 Q1015 NOSIG
10:20
V
20 °C 10 km+ - Var Var 4 kt METAR EDDS 140820Z AUTO VRB04KT CAVOK 20/12 Q1015 NOSIG
09:50
V
20 °C 10 km+ - Var Var 4 kt METAR EDDS 140750Z AUTO VRB04KT CAVOK 20/12 Q1015 NOSIG
09:20
V
19 °C 10 km+ - 060° 060° 1 kt METAR EDDS 140720Z AUTO 06001KT CAVOK 19/12 Q1015 NOSIG
08:50
V
18 °C 10 km+ - Var Var 2 kt METAR EDDS 140650Z AUTO VRB02KT CAVOK 18/13 Q1015 NOSIG
08:20
V
17 °C 10 km+ - Var Var 2 kt METAR EDDS 140620Z AUTO VRB02KT CAVOK 17/12 Q1015
07:50
V
16 °C 10 km+ - Var Var 2 kt METAR EDDS 140550Z AUTO VRB02KT CAVOK 16/12 Q1015 NOSIG
07:20
V
15 °C 10 km+ - Var Var 2 kt METAR EDDS 140520Z AUTO VRB02KT CAVOK 15/11 Q1015 NOSIG
06:50
V
13 °C 10 km+ - Var Var 1 kt METAR EDDS 140450Z AUTO VRB01KT CAVOK 13/11 Q1015 NOSIG
06:20
V
12 °C 10 km+ - Var Var 2 kt METAR EDDS 140420Z AUTO VRB02KT CAVOK 12/10 Q1015 NOSIG
05:50
V
12 °C 10 km+ - 360° 360° 0 kt METAR EDDS 140350Z AUTO 00000KT CAVOK 12/10 Q1015
05:20
V
11 °C 10 km+ - 360° 360° 0 kt METAR EDDS 140320Z AUTO 00000KT CAVOK 11/10 Q1015
04:50
V
11 °C 10 km+ - 300° 300° 4 kt METAR EDDS 140250Z AUTO 30004KT CAVOK 11/10 Q1015
04:20
V
11 °C 10 km+ - 290° 290° 2 kt METAR EDDS 140220Z AUTO 29002KT CAVOK 11/10 Q1014
03:50
V
12 °C 10 km+ - 260° 260° 3 kt METAR EDDS 140150Z AUTO 26003KT 210V290 CAVOK 12/10 Q1014
03:20
V
12 °C 10 km+ - 260° 260° 3 kt METAR EDDS 140120Z AUTO 26003KT CAVOK 12/10 Q1014
02:50
V
12 °C 10 km+ - 280° 280° 5 kt METAR EDDS 140050Z AUTO 28005KT CAVOK 12/10 Q1014
02:20
V
13 °C 10 km+ - 290° 290° 5 kt METAR EDDS 140020Z AUTO 29005KT CAVOK 13/10 Q1015
01:50
V
13 °C 10 km+ - 270° 270° 5 kt METAR EDDS 132350Z AUTO 27005KT CAVOK 13/10 Q1015
01:20
V
13 °C 10 km+ - 260° 260° 4 kt METAR EDDS 132320Z AUTO 26004KT CAVOK 13/10 Q1015
00:50
V
14 °C 10 km+ - 230° 230° 3 kt METAR EDDS 132250Z AUTO 23003KT CAVOK 14/11 Q1015
00:20
V
14 °C 10 km+ - 270° 270° 3 kt METAR EDDS 132220Z AUTO 27003KT CAVOK 14/10 Q1015

13 de julho de 2024

Hora Código Clima Temp. Visibilidade Tecto Vento METAR/SPECI
23:50
V
15 °C 10 km+ - Var Var 2 kt METAR EDDS 132150Z AUTO VRB02KT CAVOK 15/11 Q1015
23:20
V
15 °C 10 km+ - 280° 280° 1 kt METAR EDDS 132120Z AUTO 28001KT CAVOK 15/11 Q1015
22:50
V
17 °C 10 km+ - Var Var 2 kt METAR EDDS 132050Z AUTO VRB02KT CAVOK 17/10 Q1015
22:20
V
17 °C 10 km+ - 320° 320° 4 kt METAR EDDS 132020Z AUTO 32004KT 270V360 CAVOK 17/10 Q1015
21:50
V
18 °C 10 km+ - 310° 310° 6 kt METAR EDDS 131950Z AUTO 31006KT CAVOK 18/11 Q1014 NOSIG
21:20
V
19 °C 10 km+ - 320° 320° 6 kt METAR EDDS 131920Z AUTO 32006KT CAVOK 19/11 Q1014 NOSIG
20:50
V
19 °C 10 km+ - 350° 350° 5 kt METAR EDDS 131850Z AUTO 35005KT CAVOK 19/11 Q1014 NOSIG
20:20
V
20 °C 10 km+ - 350° 350° 4 kt METAR EDDS 131820Z AUTO 35004KT 320V020 CAVOK 20/11 Q1014 NOSIG
19:50
V
21 °C 10 km+ - 330° 330° 6 kt METAR EDDS 131750Z AUTO 33006KT CAVOK 21/10 Q1014 NOSIG
19:20
V
22 °C 10 km+ - 360° 360° 5 kt METAR EDDS 131720Z AUTO 36005KT 320V070 CAVOK 22/11 Q1014
18:50
V
22 °C 10 km+ - 340° 340° 5 kt METAR EDDS 131650Z AUTO 34005KT 300V030 CAVOK 22/10 Q1014 NOSIG
18:20
V
21 °C 10 km+ - 350° 350° 6 kt METAR EDDS 131620Z AUTO 35006KT 310V020 9999 FEW049 21/11 Q1014 NOSIG
17:50
V
22 °C 10 km+ - 030° 030° 5 kt METAR EDDS 131550Z AUTO 03005KT 280V080 9999 FEW049 22/11 Q1014 NOSIG
17:20
V
22 °C 10 km+ - 050° 050° 6 kt METAR EDDS 131520Z AUTO 05006KT 010V090 9999 FEW045 22/11 Q1014 NOSIG
16:50
V
22 °C 10 km+ - Var Var 3 kt METAR EDDS 131450Z AUTO VRB03KT 9999 FEW042 SCT049 22/12 Q1014 NOSIG
16:20
V
21 °C 10 km+ - Var Var 4 kt METAR EDDS 131420Z AUTO VRB04KT 9999 FEW039 21/12 Q1014 NOSIG
15:50
V
22 °C 10 km+ - Var Var 5 kt METAR EDDS 131350Z AUTO VRB05KT 9999 FEW039 22/12 Q1014 NOSIG
15:20
V
20 °C 10 km+ 3.900 ft Var Var 2 kt METAR EDDS 131320Z AUTO VRB02KT 9999 BKN039 BKN047 20/12 Q1014 NOSIG
14:50
V
21 °C 10 km+ 4.000 ft Var Var 2 kt METAR EDDS 131250Z AUTO VRB02KT 9999 BKN040 21/12 Q1014 NOSIG
14:20
V
21 °C 10 km+ - 100° 100° 6 kt METAR EDDS 131220Z AUTO 10006KT 040V190 9999 SCT036 SCT044 21/13 Q1014 NOSIG
13:50
V
20 °C 10 km+ - 140° 140° 6 kt METAR EDDS 131150Z AUTO 14006KT 090V190 9999 FEW033 20/12 Q1014 NOSIG
13:20
V
20 °C 10 km+ - 130° 130° 5 kt METAR EDDS 131120Z AUTO 13005KT 070V180 CAVOK 20/12 Q1014 NOSIG
12:50
V
19 °C 10 km+ - Var Var 2 kt METAR EDDS 131050Z AUTO VRB02KT 9999 FEW035 19/12 Q1015 NOSIG
12:20
V
18 °C 10 km+ - Var Var 3 kt METAR EDDS 131020Z AUTO VRB03KT 9999 SCT030 SCT042 18/13 Q1015 NOSIG
11:50
V
18 °C 10 km+ - Var Var 3 kt METAR EDDS 130950Z AUTO VRB03KT 9999 FEW030 18/12 Q1015 NOSIG
11:20
V
18 °C 10 km+ - 230° 230° 4 kt METAR EDDS 130920Z AUTO 23004KT 110V280 9999 FEW025 18/12 Q1015 NOSIG
10:50
V
18 °C 10 km+ - 240° 240° 3 kt METAR EDDS 130850Z AUTO 24003KT 170V300 9999 FEW024 18/12 Q1015 NOSIG
10:20
V
17 °C 10 km+ - 230° 230° 4 kt METAR EDDS 130820Z AUTO 23004KT 150V310 9999 FEW022 17/12 Q1015 NOSIG
09:50
V
17 °C 10 km+ - 220° 220° 5 kt METAR EDDS 130750Z AUTO 22005KT 160V280 9999 FEW019 17/12 Q1015 NOSIG
09:20
V
17 °C 10 km+ - 220° 220° 4 kt METAR EDDS 130720Z AUTO 22004KT 110V270 9999 FEW020 17/11 Q1015 NOSIG
08:50
V
17 °C 10 km+ - Var Var 2 kt METAR EDDS 130650Z AUTO VRB02KT CAVOK 17/12 Q1015 NOSIG
08:20
V
16 °C 10 km+ - Var Var 2 kt METAR EDDS 130620Z AUTO VRB02KT CAVOK 16/12 Q1015 NOSIG
07:50
V
15 °C 10 km+ - Var Var 2 kt METAR EDDS 130550Z AUTO VRB02KT 9999 FEW033 15/12 Q1015 NOSIG
07:20
M
14 °C 10 km+ 2.700 ft 240° 240° 4 kt METAR EDDS 130520Z AUTO 24004KT 200V270 9999 SCT019 BKN027 OVC032 14/12 Q1015 NOSIG
06:50
M
14 °C 10 km+ 1.900 ft 240° 240° 3 kt METAR EDDS 130450Z AUTO 24003KT 200V260 9999 BKN019 OVC024 14/12 Q1015 NOSIG
06:20
V
13 °C 10 km+ - 240° 240° 3 kt METAR EDDS 130420Z AUTO 24003KT 9999 SCT020 13/12 Q1015 NOSIG
05:50
V
14 °C 10 km+ - Var Var 2 kt METAR EDDS 130350Z AUTO VRB02KT 9999 FEW013 14/12 Q1014
05:20
V
14 °C 10 km+ - 210° 210° 2 kt METAR EDDS 130320Z AUTO 21002KT CAVOK 14/12 Q1014
04:50
V
14 °C 10 km+ - Var Var 2 kt METAR EDDS 130250Z AUTO VRB02KT CAVOK 14/12 Q1014
04:20
V
14 °C 10 km+ - 250° 250° 4 kt METAR EDDS 130220Z AUTO 25004KT CAVOK 14/13 Q1014
03:50
V
15 °C 10 km+ - Var Var 2 kt METAR EDDS 130150Z AUTO VRB02KT 9999 VCSH FEW032 SCT040 FEW///TCU 15/14 Q1014
03:20
V
15 °C 10 km+ - Var Var 2 kt METAR EDDS 130120Z AUTO VRB02KT 9999 FEW030 15/13 Q1014
02:50
V
16 °C 10 km+ - 220° 220° 3 kt METAR EDDS 130050Z AUTO 22003KT 160V280 CAVOK 16/14 Q1014
02:20
V
16 °C 10 km+ - 230° 230° 3 kt METAR EDDS 130020Z AUTO 23003KT 150V310 CAVOK 16/14 Q1014
01:50
V
16 °C 10 km+ - 250° 250° 4 kt METAR EDDS 122350Z AUTO 25004KT 210V280 9999 FEW033 16/14 Q1014 RESHRA
01:20
V
16 °C 10 km+ - 240° 240° 5 kt METAR EDDS 122320Z AUTO 24005KT 190V270 9999 SHRA FEW039 FEW///TCU 16/14 Q1014 RETS
00:50
V
17 °C 10 km+ 4.800 ft 250° 250° 6 kt METAR EDDS 122250Z AUTO 25006KT 220V280 9999 TSRA FEW037 BKN048 FEW///CB 17/15 Q1014
00:20
V
17 °C 10 km+ 4.300 ft 250° 250° 7 kt METAR EDDS 122220Z AUTO 25007KT 9999 -SHRA VCTS FEW036 BKN043 FEW///CB 17/15 Q1013 RETSRA

12 de julho de 2024

Hora Código Clima Temp. Visibilidade Tecto Vento METAR/SPECI
23:50
V
18 °C 10 km+ 4.500 ft 280° 280° 8 kt METAR EDDS 122150Z AUTO 28008KT 250V310 9999 TSRA SCT033 BKN045 FEW///CB 18/15 Q1013
23:20
V
17 °C 10 km+ - 250° 250° 3 kt METAR EDDS 122120Z AUTO 25003KT 160V270 9999 FEW042 17/16 Q1013
22:50
V
18 °C 10 km+ - 220° 220° 3 kt METAR EDDS 122050Z AUTO 22003KT 150V290 9999 VCSH SCT041 FEW///TCU 18/16 Q1013 RESHRA
22:20
V
18 °C 10 km+ 4.900 ft 210° 210° 3 kt METAR EDDS 122020Z AUTO 21003KT 120V250 9999 +SHRA SCT041 BKN049 FEW///TCU 18/16 Q1012
21:50
M
18 °C 7 km - 250° 250° 12 kt METAR EDDS 121950Z AUTO 25012KT 220V280 7000 +SHRA FEW039 SCT048 FEW///CB 18/16 Q1013 TEMPO NSW
21:20
V
20 °C 10 km+ - 230° 230° 3 kt METAR EDDS 121920Z AUTO 23003KT 170V280 CAVOK 20/17 Q1011 TEMPO TSRA BKN045CB
20:50
V
20 °C 10 km+ - Var Var 1 kt METAR EDDS 121850Z AUTO VRB01KT 9999 FEW047 20/17 Q1011 TEMPO SHRA BKN045CB
20:20
V
20 °C 10 km+ - 230° 230° 5 kt METAR EDDS 121820Z AUTO 23005KT 190V290 9999 FEW047 20/17 Q1011 NOSIG
19:50
V
20 °C 10 km+ - 210° 210° 3 kt METAR EDDS 121750Z AUTO 21003KT 150V270 9999 FEW010 SCT046 20/18 Q1011 NOSIG
19:20
V
20 °C 10 km+ - 120° 120° 3 kt METAR EDDS 121720Z AUTO 12003KT 060V200 9999 -SHRA FEW///TCU 20/18 Q1010 RESHRA NOSIG
18:50
V
21 °C 10 km+ - 160° 160° 3 kt METAR EDDS 121650Z AUTO 16003KT 080V230 9999 -RA FEW019 21/17 Q1011 TEMPO SHRA
18:20
V
21 °C 10 km+ - 160° 160° 4 kt METAR EDDS 121620Z AUTO 16004KT 120V210 9999 SCT022 21/17 Q1011 RESHRA NOSIG
17:50
V
22 °C 10 km+ - Var Var 2 kt METAR EDDS 121550Z AUTO VRB02KT 9999 VCSH FEW///CB 22/18 Q1012 RESHRA TEMPO 3000 TSRA
17:20
V
20 °C 10 km+ - 260° 260° 4 kt METAR EDDS 121520Z AUTO 26004KT 220V310 9999 +SHRA VCTS SCT046 SCT///CB 20/17 Q1012 TEMPO 24015G30KT 3000 TSRA
16:50
V
21 °C 10 km+ - 280° 280° 11 - 21 kt METAR EDDS 121450Z AUTO 28011G21KT 250V330 9999 +SHRA VCTS FEW028 SCT048 FEW///CB 21/17 Q1011 TEMPO 24015G30KT 3000 TSRA
16:20
V
22 °C 10 km+ - 290° 290° 11 kt METAR EDDS 121420Z AUTO 29011KT CAVOK 22/17 Q1011 TEMPO 24015G30KT 3000 TSRA
15:50
V
23 °C 10 km+ - 300° 300° 8 kt METAR EDDS 121350Z AUTO 30008KT 270V340 9999 -SHRA VCTS FEW017 FEW///CB 23/17 Q1011 RETSRA TEMPO 24015G30KT 3000 TSRA
15:20
V
22 °C 10 km+ 4.700 ft 290° 290° 13 kt METAR EDDS 121320Z AUTO 29013KT 9999 SHRA BKN047 FEW///CB 22/16 Q1011 TEMPO 24015G30KT 3000 TSRA
14:50
V
23 °C 10 km+ - 270° 270° 12 - 24 kt METAR EDDS 121250Z AUTO 27012G24KT 190V300 9999 VCSH FEW046 FEW///CB 23/15 Q1011 TEMPO 24015G30KT 3000 TSRA
14:20
V
26 °C 10 km+ - 210° 210° 5 kt METAR EDDS 121220Z AUTO 21005KT 140V310 CAVOK 26/17 Q1011 TEMPO 24015G30KT 3000 TSRA
13:50
V
27 °C 10 km+ - 190° 190° 8 kt METAR EDDS 121150Z AUTO 19008KT 130V260 9999 SCT042 27/17 Q1011 NOSIG
13:20
V
26 °C 10 km+ - 220° 220° 6 kt METAR EDDS 121120Z AUTO 22006KT 140V290 9999 FEW041 26/17 Q1011 NOSIG
12:50
V
26 °C 10 km+ - 210° 210° 8 kt METAR EDDS 121050Z AUTO 21008KT 140V270 CAVOK 26/17 Q1011 NOSIG
12:20
V
26 °C 10 km+ - Var Var 7 kt METAR EDDS 121020Z AUTO VRB07KT 9999 SCT039 26/18 Q1011 NOSIG
11:50
V
25 °C 10 km+ - Var Var 4 kt METAR EDDS 120950Z AUTO VRB04KT 9999 FEW041 25/17 Q1011 NOSIG
11:20
V
25 °C 10 km+ - Var Var 4 kt METAR EDDS 120920Z AUTO VRB04KT 9999 FEW041 25/17 Q1011 NOSIG
10:50
V
24 °C 10 km+ - Var Var 3 kt METAR EDDS 120850Z AUTO VRB03KT 9999 FEW046 24/18 Q1012 NOSIG
10:20
V
23 °C 10 km+ - Var Var 2 kt METAR EDDS 120820Z AUTO VRB02KT CAVOK 23/17 Q1011 NOSIG
09:50
V
23 °C 10 km+ - Var Var 3 kt METAR EDDS 120750Z AUTO VRB03KT CAVOK 23/17 Q1012 NOSIG
09:20
V
22 °C 10 km+ - Var Var 2 kt METAR EDDS 120720Z AUTO VRB02KT CAVOK 22/17 Q1012 NOSIG
08:50
V
21 °C 10 km+ - 190° 190° 1 kt METAR EDDS 120650Z AUTO 19001KT CAVOK 21/19 Q1012 NOSIG
08:20
V
20 °C 10 km+ - 360° 360° 0 kt METAR EDDS 120620Z AUTO 00000KT CAVOK 20/18 Q1012 NOSIG
07:50
V
20 °C 10 km+ - 360° 360° 0 kt METAR EDDS 120550Z AUTO 00000KT CAVOK 20/18 Q1012 NOSIG
Relatar uma mudança